Time;durP1;ratioP1;P1;durP2;ratioP2;P2;SDS_P1;SDS_P2;PMS_P1;PMS_P2;Temp;Humidity;BMP_temperature;BMP_pressure;BME280_temperature;BME280_humidity;BME280_pressure;Samples;Min_cycle;Max_cycle;Signal;HPM_P1;HPM_P2
2023/08/16 00:01:16;;;;;;;14.40;9.05;;;21.50;99.90;;;;;;5065645;28;20032;-73
2023/08/16 00:03:42;;;;;;;11.48;9.73;;;21.40;99.90;;;;;;5065672;28;20036;-73
2023/08/16 00:06:11;;;;;;;12.20;9.38;;;21.40;99.90;;;;;;5067631;28;20078;-73
2023/08/16 00:08:38;;;;;;;11.98;9.73;;;21.40;99.90;;;;;;5070545;28;20111;-73
2023/08/16 00:11:03;;;;;;;13.43;9.30;;;21.40;99.90;;;;;;5064594;28;20029;-73
2023/08/16 00:13:29;;;;;;;15.32;9.07;;;21.40;99.90;;;;;;5063776;28;20494;-73
2023/08/16 00:15:55;;;;;;;13.88;9.70;;;21.40;99.90;;;;;;5065009;28;20028;-73
2023/08/16 00:18:20;;;;;;;10.25;9.15;;;21.30;99.90;;;;;;5062733;28;20017;-73
2023/08/16 00:20:46;;;;;;;12.15;10.85;;;21.30;99.90;;;;;;5055000;28;20025;-73
2023/08/16 00:23:12;;;;;;;13.63;10.73;;;21.30;99.90;;;;;;5061427;28;20047;-73
2023/08/16 00:25:38;;;;;;;13.70;9.75;;;21.20;99.90;;;;;;5056699;28;20450;-73
2023/08/16 00:28:04;;;;;;;12.07;9.35;;;21.20;99.90;;;;;;5059998;28;20055;-72
2023/08/16 00:30:30;;;;;;;13.85;9.75;;;21.10;99.90;;;;;;5062020;28;20021;-72
2023/08/16 00:32:55;;;;;;;13.90;10.48;;;21.10;99.90;;;;;;5066890;28;20039;-72
2023/08/16 00:35:21;;;;;;;13.50;8.98;;;21.10;99.90;;;;;;5059022;28;20025;-71
2023/08/16 00:37:46;;;;;;;16.75;8.57;;;21.00;99.90;;;;;;5066280;28;20054;-73
2023/08/16 00:40:12;;;;;;;17.08;8.88;;;21.10;99.90;;;;;;5052684;28;20060;-73
2023/08/16 00:42:37;;;;;;;14.95;9.95;;;21.10;99.90;;;;;;5066800;28;20101;-73
2023/08/16 00:45:03;;;;;;;15.27;7.63;;;21.10;99.90;;;;;;5059384;28;20035;-73
2023/08/16 00:47:29;;;;;;;8.93;8.02;;;21.10;99.90;;;;;;5062103;28;20029;-73
2023/08/16 00:49:55;;;;;;;13.85;8.63;;;21.20;99.90;;;;;;5059899;28;20027;-73
2023/08/16 00:52:20;;;;;;;8.95;7.57;;;21.20;99.90;;;;;;5063032;28;20040;-73
2023/08/16 00:54:46;;;;;;;11.57;7.75;;;21.20;99.90;;;;;;5069011;28;20025;-73
2023/08/16 00:57:12;;;;;;;10.50;8.10;;;21.10;99.90;;;;;;5055008;28;20060;-73
2023/08/16 00:59:38;;;;;;;10.57;9.07;;;21.10;99.90;;;;;;5054221;28;20491;-73
2023/08/16 01:02:04;;;;;;;9.90;7.40;;;21.10;99.90;;;;;;5066115;28;20038;-73
2023/08/16 01:04:30;;;;;;;14.43;8.43;;;21.10;99.90;;;;;;5069595;28;20036;-73
2023/08/16 01:06:57;;;;;;;14.63;7.88;;;21.10;99.90;;;;;;5059831;28;20048;-73
2023/08/16 01:09:24;;;;;;;10.18;7.18;;;21.00;99.90;;;;;;5059944;28;20036;-73
2023/08/16 01:12:20;;;;;;;9.60;7.75;;;21.00;99.90;;;;;;5055738;28;20368;-73
2023/08/16 01:14:57;;;;;;;14.57;8.88;;;21.10;99.90;;;;;;5042738;28;20039;-73
2023/08/16 01:17:24;;;;;;;12.63;8.88;;;21.00;99.90;;;;;;5071344;28;20056;-73
2023/08/16 01:19:53;;;;;;;10.63;8.00;;;20.90;99.90;;;;;;5073560;28;20025;-73
2023/08/16 01:22:40;;;;;;;11.43;9.27;;;20.80;99.90;;;;;;5065107;28;20395;-73
2023/08/16 01:25:11;;;;;;;11.35;9.07;;;20.80;99.90;;;;;;5060815;28;20115;-73
2023/08/16 01:27:37;;;;;;;9.23;7.55;;;20.80;99.90;;;;;;5073286;28;20028;-73
2023/08/16 01:30:05;;;;;;;11.05;9.35;;;20.80;99.90;;;;;;5064853;28;20029;-73
2023/08/16 01:32:31;;;;;;;13.15;8.73;;;20.70;99.90;;;;;;5049143;28;20025;-73
2023/08/16 01:34:57;;;;;;;12.30;9.38;;;20.80;99.90;;;;;;5057810;28;20036;-73
2023/08/16 01:37:23;;;;;;;9.00;7.90;;;20.80;99.90;;;;;;5070010;28;20410;-73
2023/08/16 01:39:50;;;;;;;17.10;9.68;;;20.70;99.90;;;;;;5059792;28;20107;-72
2023/08/16 01:42:17;;;;;;;9.73;8.73;;;20.70;99.90;;;;;;5060874;28;20033;-73
2023/08/16 01:44:45;;;;;;;11.82;8.35;;;20.70;99.90;;;;;;5064116;28;20480;-73
2023/08/16 01:47:13;;;;;;;11.02;7.72;;;20.60;99.90;;;;;;5062456;28;20036;-73
2023/08/16 01:49:41;;;;;;;13.52;9.10;;;20.60;99.90;;;;;;5069352;28;20020;-73
2023/08/16 01:52:07;;;;;;;12.60;8.02;;;20.60;99.90;;;;;;5063631;28;20024;-72
2023/08/16 01:54:33;;;;;;;13.63;9.27;;;20.60;99.90;;;;;;5062286;28;20032;-72
2023/08/16 01:56:59;;;;;;;12.95;9.82;;;20.60;99.90;;;;;;5069160;28;20024;-72
2023/08/16 01:59:24;;;;;;;13.00;9.30;;;20.60;99.90;;;;;;5069608;28;20024;-72
2023/08/16 02:01:50;;;;;;;9.07;7.82;;;20.60;99.90;;;;;;5060319;28;20112;-73
2023/08/16 02:04:15;;;;;;;9.88;8.25;;;20.60;99.90;;;;;;5063006;28;20036;-73
2023/08/16 02:06:41;;;;;;;10.23;8.93;;;20.60;99.90;;;;;;5066224;28;20021;-73
2023/08/16 02:09:06;;;;;;;15.93;9.93;;;20.60;99.90;;;;;;5064673;28;20024;-73
2023/08/16 02:11:32;;;;;;;14.90;9.10;;;20.60;99.90;;;;;;5070540;28;20040;-72
2023/08/16 02:13:58;;;;;;;10.73;8.63;;;20.50;99.90;;;;;;5069666;28;20372;-72
2023/08/16 02:16:24;;;;;;;11.57;9.55;;;20.50;99.90;;;;;;5069815;28;20037;-73
2023/08/16 02:18:51;;;;;;;12.40;11.13;;;20.50;99.90;;;;;;5055856;28;20080;-73
2023/08/16 02:21:17;;;;;;;10.73;9.27;;;20.50;99.90;;;;;;5064776;28;20044;-73
2023/08/16 02:23:43;;;;;;;11.80;10.13;;;20.50;99.90;;;;;;5061242;28;20037;-72
2023/08/16 02:26:08;;;;;;;11.02;9.55;;;20.40;99.90;;;;;;5061805;28;20032;-72
2023/08/16 02:28:34;;;;;;;14.27;10.15;;;20.40;99.90;;;;;;5063454;28;20029;-72
2023/08/16 02:31:04;;;;;;;12.80;10.55;;;20.50;99.90;;;;;;5065243;28;20021;-72
2023/08/16 02:33:30;;;;;;;12.30;9.68;;;20.50;99.90;;;;;;5063277;28;20037;-72
2023/08/16 02:35:55;;;;;;;17.02;9.68;;;20.40;99.90;;;;;;5072742;28;20102;-72
2023/08/16 02:38:21;;;;;;;12.40;9.45;;;20.40;99.90;;;;;;5063550;28;20437;-72
2023/08/16 02:40:47;;;;;;;9.88;8.88;;;20.40;99.90;;;;;;5059927;28;20068;-72
2023/08/16 02:43:12;;;;;;;11.38;9.60;;;20.30;99.90;;;;;;5055521;28;20430;-72
2023/08/16 02:45:37;;;;;;;12.65;8.98;;;20.30;99.90;;;;;;5066922;28;20024;-73
2023/08/16 02:48:03;;;;;;;10.68;9.25;;;20.30;99.90;;;;;;5072138;28;20028;-72
2023/08/16 02:50:29;;;;;;;11.38;9.85;;;20.30;99.90;;;;;;5069814;28;20075;-72
2023/08/16 02:52:55;;;;;;;12.70;9.65;;;20.30;99.90;;;;;;5063733;28;20024;-72
2023/08/16 02:55:20;;;;;;;12.63;10.15;;;20.30;99.90;;;;;;5071643;28;20029;-72
2023/08/16 02:57:46;;;;;;;13.02;9.02;;;20.30;99.90;;;;;;5066101;28;20107;-72
2023/08/16 03:00:13;;;;;;;12.20;9.32;;;20.20;99.90;;;;;;5061236;28;20376;-72
2023/08/16 03:02:38;;;;;;;11.35;10.07;;;20.20;99.90;;;;;;5070525;28;20043;-72
2023/08/16 03:05:04;;;;;;;13.98;9.27;;;20.20;99.90;;;;;;5061528;28;20029;-72
2023/08/16 03:07:29;;;;;;;11.90;10.13;;;20.20;99.90;;;;;;5053161;28;20400;-72
2023/08/16 03:09:55;;;;;;;11.82;10.27;;;20.30;99.90;;;;;;5068427;28;20398;-72
2023/08/16 03:12:20;;;;;;;16.77;11.07;;;20.30;99.90;;;;;;5064088;28;20086;-72
2023/08/16 03:14:46;;;;;;;12.23;9.55;;;20.30;99.90;;;;;;5069286;28;20109;-72
2023/08/16 03:17:11;;;;;;;11.07;8.07;;;20.30;99.90;;;;;;5061992;28;20029;-72
2023/08/16 03:19:37;;;;;;;11.55;10.35;;;20.30;99.90;;;;;;5064097;28;20048;-72
2023/08/16 03:22:03;;;;;;;13.63;10.05;;;20.40;99.90;;;;;;5048721;28;20040;-72
2023/08/16 03:24:28;;;;;;;11.50;10.30;;;20.40;99.90;;;;;;5057184;28;20035;-72
2023/08/16 03:26:54;;;;;;;10.52;8.77;;;20.40;99.90;;;;;;5063720;28;20032;-72
2023/08/16 03:29:19;;;;;;;10.32;9.25;;;20.40;99.90;;;;;;5064881;28;20399;-72
2023/08/16 03:31:46;;;;;;;11.60;9.50;;;20.40;99.90;;;;;;5067324;28;20028;-72
2023/08/16 03:34:11;;;;;;;12.98;9.25;;;20.30;99.90;;;;;;5067248;28;20048;-72
2023/08/16 03:36:37;;;;;;;11.38;9.77;;;20.30;99.90;;;;;;5055671;28;20109;-72
2023/08/16 03:39:05;;;;;;;10.45;9.23;;;20.20;99.90;;;;;;5064861;28;20048;-72
2023/08/16 03:41:32;;;;;;;11.73;8.32;;;20.20;99.90;;;;;;5064886;28;20028;-72
2023/08/16 03:43:58;;;;;;;15.63;11.18;;;20.20;99.90;;;;;;5069398;28;20047;-72
2023/08/16 03:46:23;;;;;;;11.13;8.55;;;20.20;99.90;;;;;;5064729;28;20036;-72
2023/08/16 03:48:49;;;;;;;14.98;9.43;;;20.10;99.90;;;;;;5070022;28;20029;-72
2023/08/16 03:51:14;;;;;;;9.40;8.43;;;20.10;99.90;;;;;;5068217;28;20032;-72
2023/08/16 03:53:40;;;;;;;9.40;8.13;;;20.10;99.90;;;;;;5063522;28;20024;-72
2023/08/16 03:56:05;;;;;;;10.52;9.43;;;20.10;99.90;;;;;;5058438;28;20490;-72
2023/08/16 03:58:31;;;;;;;12.15;9.48;;;20.10;99.90;;;;;;5056165;28;20031;-72
2023/08/16 04:00:56;;;;;;;15.55;8.32;;;19.90;99.90;;;;;;5058673;28;20032;-72
2023/08/16 04:03:22;;;;;;;8.43;7.32;;;19.80;99.90;;;;;;5060749;28;20028;-72
2023/08/16 04:05:47;;;;;;;14.48;9.32;;;19.80;99.90;;;;;;5067216;28;20020;-72
2023/08/16 04:08:13;;;;;;;15.73;11.48;;;19.90;99.90;;;;;;5068946;28;20111;-72
2023/08/16 04:10:38;;;;;;;12.65;10.93;;;19.90;99.90;;;;;;5061268;28;20017;-72
2023/08/16 04:13:04;;;;;;;13.10;8.35;;;19.80;99.90;;;;;;5065736;28;20039;-72
2023/08/16 04:15:30;;;;;;;15.80;9.90;;;19.70;99.90;;;;;;5068479;28;20028;-72
2023/08/16 04:17:56;;;;;;;12.15;8.93;;;19.70;99.90;;;;;;5054332;28;20454;-72
2023/08/16 04:20:24;;;;;;;10.85;8.45;;;19.70;99.90;;;;;;5059149;28;20094;-72
2023/08/16 04:22:50;;;;;;;13.63;9.70;;;19.80;99.90;;;;;;5056433;28;20131;-72
2023/08/16 04:25:16;;;;;;;16.70;7.95;;;19.90;99.90;;;;;;5062614;28;20033;-71
2023/08/16 04:27:42;;;;;;;10.40;8.35;;;20.00;99.90;;;;;;5065080;28;20044;-72
2023/08/16 04:30:09;;;;;;;18.00;10.57;;;20.10;99.90;;;;;;5054692;28;20052;-72
2023/08/16 04:32:35;;;;;;;13.43;8.50;;;20.10;99.90;;;;;;5065441;28;20370;-71
2023/08/16 04:35:01;;;;;;;9.98;8.40;;;20.00;99.90;;;;;;5067680;28;20024;-72
2023/08/16 04:37:26;;;;;;;12.85;8.30;;;20.00;99.90;;;;;;5062802;28;20035;-72
2023/08/16 04:39:52;;;;;;;15.10;9.70;;;20.00;99.90;;;;;;5066519;28;20108;-72
2023/08/16 04:42:18;;;;;;;11.50;9.88;;;20.10;99.90;;;;;;5064363;28;20047;-72
2023/08/16 04:44:44;;;;;;;16.77;9.10;;;20.20;99.90;;;;;;5065671;28;20033;-72
2023/08/16 04:47:10;;;;;;;12.88;7.88;;;20.20;99.90;;;;;;5066385;28;20025;-72
2023/08/16 04:49:35;;;;;;;12.40;7.65;;;20.40;99.90;;;;;;5065719;28;20078;-71
2023/08/16 04:52:01;;;;;;;13.27;9.32;;;20.70;99.90;;;;;;5066477;28;20028;-71
2023/08/16 04:54:26;;;;;;;17.52;8.20;;;20.90;99.90;;;;;;5061678;28;20051;-71
2023/08/16 04:56:52;;;;;;;13.75;7.75;;;21.00;99.90;;;;;;5065812;28;20466;-71
2023/08/16 04:59:18;;;;;;;11.90;7.82;;;21.00;99.90;;;;;;5073400;28;20074;-71
2023/08/16 05:01:44;;;;;;;9.68;7.45;;;21.00;99.90;;;;;;5071004;28;20565;-71
2023/08/16 05:04:09;;;;;;;9.30;6.85;;;21.00;99.90;;;;;;5073505;28;20101;-71
2023/08/16 05:06:36;;;;;;;11.70;7.97;;;20.60;99.90;;;;;;5059670;28;20113;-72
2023/08/16 05:09:03;;;;;;;10.25;8.50;;;20.50;99.90;;;;;;5063507;28;20094;-71
2023/08/16 05:11:29;;;;;;;11.25;7.93;;;20.30;99.90;;;;;;5069922;28;20574;-72
2023/08/16 05:13:55;;;;;;;11.68;10.48;;;20.10;99.90;;;;;;5067266;28;20082;-71
2023/08/16 05:16:20;;;;;;;14.05;9.05;;;20.20;99.90;;;;;;5066042;28;20021;-72
2023/08/16 05:18:46;;;;;;;11.98;7.65;;;20.20;99.90;;;;;;5065446;28;20025;-71
2023/08/16 05:23:44;;;;;;;15.43;7.53;;;20.10;99.90;;;;;;5018209;28;20050;-72
2023/08/16 05:26:10;;;;;;;11.88;7.93;;;19.90;99.90;;;;;;5037793;28;20518;-72
2023/08/16 05:28:35;;;;;;;11.00;8.55;;;19.90;99.90;;;;;;5051858;28;20540;-72
2023/08/16 05:31:08;;;;;;;13.82;6.97;;;19.80;99.90;;;;;;5050834;28;20033;-72
2023/08/16 05:33:34;;;;;;;8.27;7.13;;;19.70;99.90;;;;;;5050205;28;20139;-72
2023/08/16 05:36:00;;;;;;;10.52;6.05;;;19.80;99.90;;;;;;5056373;28;20490;-72
2023/08/16 05:38:25;;;;;;;7.05;6.35;;;19.90;99.90;;;;;;5044269;28;20021;-73
2023/08/16 05:40:51;;;;;;;9.63;5.95;;;19.80;99.90;;;;;;5041596;28;20024;-72
2023/08/16 05:43:17;;;;;;;9.18;5.32;;;19.60;99.90;;;;;;5040862;28;20029;-72
2023/08/16 05:45:42;;;;;;;10.18;6.15;;;19.50;99.90;;;;;;5043898;28;20088;-72
2023/08/16 05:48:08;;;;;;;12.65;6.45;;;19.60;99.90;;;;;;5040052;28;20486;-72
2023/08/16 05:50:35;;;;;;;10.65;5.10;;;19.60;99.90;;;;;;5041155;28;20417;-72
2023/08/16 05:53:00;;;;;;;9.00;4.75;;;19.50;99.90;;;;;;5042097;28;20021;-72
2023/08/16 05:55:26;;;;;;;15.38;6.35;;;19.60;99.90;;;;;;5037187;28;20033;-72
2023/08/16 05:57:51;;;;;;;6.80;5.00;;;19.60;99.90;;;;;;5040494;28;20025;-72
2023/08/16 06:00:17;;;;;;;11.00;6.53;;;19.70;99.90;;;;;;5036627;28;20454;-72
2023/08/16 06:02:43;;;;;;;8.60;4.85;;;19.70;99.90;;;;;;5037774;28;20116;-71
2023/08/16 06:05:09;;;;;;;7.22;5.43;;;19.70;99.90;;;;;;5035027;28;20292;-71
2023/08/16 06:07:35;;;;;;;7.80;5.05;;;19.90;99.90;;;;;;5038928;28;20039;-72
2023/08/16 06:10:01;;;;;;;13.77;5.20;;;20.00;99.90;;;;;;5042440;28;20067;-72
2023/08/16 06:12:26;;;;;;;8.75;4.75;;;20.10;99.90;;;;;;5045442;28;20033;-72
2023/08/16 06:14:52;;;;;;;5.30;4.13;;;20.20;99.90;;;;;;5052010;28;20029;-72
2023/08/16 06:17:18;;;;;;;6.80;4.32;;;20.30;99.90;;;;;;5052224;28;20035;-72
2023/08/16 06:19:43;;;;;;;4.95;3.50;;;20.40;99.90;;;;;;5042110;28;20025;-70
2023/08/16 06:22:09;;;;;;;7.85;3.45;;;20.40;99.90;;;;;;5038687;28;20037;-70
2023/08/16 06:24:38;;;;;;;4.75;3.30;;;20.40;99.90;;;;;;5039322;28;20540;-70
2023/08/16 06:27:03;;;;;;;4.88;3.38;;;20.40;99.90;;;;;;5039327;28;20079;-71
2023/08/16 06:29:29;;;;;;;8.50;4.13;;;20.30;99.90;;;;;;5038330;28;21668;-70
2023/08/16 06:31:55;;;;;;;7.85;3.28;;;20.20;99.90;;;;;;5037554;28;20039;-70
2023/08/16 06:34:21;;;;;;;8.27;3.60;;;20.30;99.90;;;;;;5041563;28;20397;-70
2023/08/16 06:36:46;;;;;;;6.93;2.92;;;20.30;99.90;;;;;;5034921;28;20025;-72
2023/08/16 06:39:13;;;;;;;5.10;3.15;;;20.30;99.90;;;;;;5038497;28;20029;-71
2023/08/16 06:41:39;;;;;;;8.10;3.72;;;20.30;99.90;;;;;;5038488;28;20028;-70
2023/08/16 06:44:05;;;;;;;7.28;3.03;;;20.40;99.90;;;;;;5039874;28;20055;-71
2023/08/16 06:46:30;;;;;;;6.30;3.25;;;20.50;99.90;;;;;;5038692;28;21056;-70
2023/08/16 06:48:56;;;;;;;8.13;3.53;;;20.60;99.90;;;;;;5040569;28;20100;-71
2023/08/16 06:51:21;;;;;;;10.63;3.47;;;20.60;99.90;;;;;;5040711;28;20033;-71
2023/08/16 06:53:49;;;;;;;5.70;3.30;;;20.70;99.90;;;;;;5038580;28;20388;-69
2023/08/16 06:56:14;;;;;;;4.13;3.03;;;20.70;99.90;;;;;;5039741;28;20036;-70
2023/08/16 06:58:41;;;;;;;5.22;3.33;;;20.80;99.90;;;;;;5038371;28;20029;-69
2023/08/16 07:01:08;;;;;;;5.72;3.05;;;20.70;99.90;;;;;;5041061;28;20417;-69
2023/08/16 07:03:34;;;;;;;7.90;3.38;;;20.80;99.90;;;;;;5039047;28;20035;-69
2023/08/16 07:05:59;;;;;;;9.57;3.47;;;20.90;99.90;;;;;;5037094;28;20025;-68
2023/08/16 07:08:25;;;;;;;4.22;2.95;;;21.10;99.90;;;;;;5041060;28;20025;-69
2023/08/16 07:10:50;;;;;;;7.80;3.05;;;21.00;99.90;;;;;;5037677;28;20028;-69
2023/08/16 07:13:16;;;;;;;6.43;3.45;;;21.10;99.90;;;;;;5040756;28;20021;-68
2023/08/16 07:15:42;;;;;;;5.82;2.97;;;21.30;99.90;;;;;;5040046;28;20415;-69
2023/08/16 07:18:07;;;;;;;4.25;3.25;;;21.40;99.90;;;;;;5039096;28;20032;-70
2023/08/16 07:20:33;;;;;;;6.45;3.42;;;21.50;99.90;;;;;;5038271;28;20527;-69
2023/08/16 07:22:59;;;;;;;6.50;3.50;;;21.50;99.90;;;;;;5039931;28;20037;-69
2023/08/16 07:25:26;;;;;;;6.65;2.88;;;21.70;99.90;;;;;;5039467;28;20695;-69
2023/08/16 07:27:52;;;;;;;8.27;3.65;;;21.90;99.90;;;;;;5040524;28;20065;-69
2023/08/16 07:30:18;;;;;;;7.32;3.40;;;22.00;99.90;;;;;;5037172;28;20128;-69
2023/08/16 07:32:43;;;;;;;4.57;3.05;;;22.00;99.90;;;;;;5038102;28;20025;-70
2023/08/16 07:35:09;;;;;;;7.35;3.13;;;22.00;99.90;;;;;;5034884;28;20029;-70
2023/08/16 07:37:36;;;;;;;9.18;3.80;;;21.80;99.90;;;;;;5037370;28;20029;-70
2023/08/16 07:40:03;;;;;;;8.50;4.22;;;21.90;99.90;;;;;;5039692;28;20497;-70
2023/08/16 07:42:28;;;;;;;5.72;2.97;;;21.80;99.90;;;;;;5038230;28;20445;-71
2023/08/16 07:44:54;;;;;;;5.95;3.60;;;21.60;99.90;;;;;;5040495;28;20487;-71
2023/08/16 07:47:19;;;;;;;9.80;3.78;;;21.50;99.90;;;;;;5038621;28;20344;-70
2023/08/16 07:49:45;;;;;;;5.07;3.25;;;21.50;99.90;;;;;;5041702;28;20036;-70
2023/08/16 07:52:11;;;;;;;5.82;3.28;;;21.50;99.90;;;;;;5039156;28;20078;-71
2023/08/16 07:54:36;;;;;;;5.75;2.60;;;21.70;99.90;;;;;;5039079;28;20031;-70
2023/08/16 07:57:02;;;;;;;9.15;3.65;;;21.90;99.90;;;;;;5039312;28;20098;-70
2023/08/16 07:59:27;;;;;;;5.65;2.92;;;22.10;99.90;;;;;;5040052;28;20036;-71
2023/08/16 08:01:54;;;;;;;10.13;3.70;;;22.30;99.90;;;;;;5037422;28;20029;-71
2023/08/16 08:04:19;;;;;;;7.18;3.28;;;22.50;99.90;;;;;;5038962;28;20028;-73
2023/08/16 08:06:45;;;;;;;6.80;2.97;;;22.60;99.90;;;;;;5040344;28;20124;-72
2023/08/16 08:09:10;;;;;;;4.90;3.35;;;22.60;99.90;;;;;;5037764;28;20484;-72
2023/08/16 08:11:37;;;;;;;7.20;3.42;;;22.50;99.90;;;;;;5040708;28;20577;-72
2023/08/16 08:14:03;;;;;;;4.50;3.28;;;22.40;99.90;;;;;;5050245;28;20195;-73
2023/08/16 08:16:28;;;;;;;4.63;3.00;;;22.30;99.90;;;;;;5049972;28;20029;-73
2023/08/16 08:18:54;;;;;;;7.63;3.47;;;22.20;99.90;;;;;;5046903;28;20055;-72
2023/08/16 08:21:19;;;;;;;7.90;3.35;;;22.20;99.90;;;;;;5042084;28;20032;-72
2023/08/16 08:23:45;;;;;;;8.20;3.47;;;22.20;99.90;;;;;;5048851;28;20029;-71
2023/08/16 08:26:10;;;;;;;7.40;3.85;;;22.20;99.90;;;;;;5051764;28;20418;-71
2023/08/16 08:28:36;;;;;;;8.65;4.10;;;22.30;99.90;;;;;;5059210;28;20150;-71
2023/08/16 08:31:03;;;;;;;7.47;3.13;;;22.50;99.90;;;;;;5054204;28;20017;-71
2023/08/16 08:33:29;;;;;;;4.32;2.63;;;22.50;99.90;;;;;;5052086;28;20037;-71
2023/08/16 08:35:55;;;;;;;6.43;4.45;;;22.50;99.90;;;;;;5050149;28;20024;-71
2023/08/16 08:38:22;;;;;;;7.07;3.70;;;22.40;99.90;;;;;;5054543;28;20025;-71
2023/08/16 08:40:55;;;;;;;9.15;2.97;;;22.30;99.90;;;;;;5047008;28;20025;-68
2023/08/16 08:43:22;;;;;;;7.38;3.13;;;22.40;99.90;;;;;;5043055;28;20033;-68
2023/08/16 08:45:49;;;;;;;9.55;3.72;;;22.40;99.90;;;;;;5047676;28;20139;-69
2023/08/16 08:48:15;;;;;;;5.57;3.33;;;22.70;99.90;;;;;;5053184;28;20017;-68
2023/08/16 08:50:42;;;;;;;9.45;3.92;;;22.80;99.90;;;;;;5016748;28;20036;-68
2023/08/16 08:53:10;;;;;;;10.13;4.68;;;22.80;99.90;;;;;;5050721;28;20025;-68
2023/08/16 08:55:38;;;;;;;8.05;5.13;;;23.00;99.90;;;;;;5048694;28;20025;-69
2023/08/16 08:58:04;;;;;;;10.63;3.95;;;23.00;99.90;;;;;;5050758;28;20033;-69
2023/08/16 09:00:33;;;;;;;6.43;3.53;;;23.10;99.90;;;;;;5051851;28;20102;-68
2023/08/16 09:03:04;;;;;;;6.97;3.90;;;23.00;99.90;;;;;;5056107;28;20071;-69
2023/08/16 09:05:31;;;;;;;7.40;4.45;;;22.90;99.90;;;;;;5051655;28;20484;-69
2023/08/16 09:07:56;;;;;;;5.10;3.30;;;23.00;99.90;;;;;;5056680;28;20479;-70
2023/08/16 09:10:22;;;;;;;9.82;4.88;;;23.20;99.90;;;;;;5052007;28;20112;-69
2023/08/16 09:12:47;;;;;;;10.55;3.70;;;23.30;99.90;;;;;;5052338;28;20025;-69
2023/08/16 09:15:13;;;;;;;7.75;4.30;;;23.40;99.90;;;;;;5051664;28;20025;-70
2023/08/16 09:17:38;;;;;;;6.32;3.80;;;23.30;99.90;;;;;;5055740;28;20033;-73
2023/08/16 09:20:05;;;;;;;10.77;4.90;;;23.40;99.90;;;;;;5056056;28;20025;-73
2023/08/16 09:22:31;;;;;;;6.43;3.20;;;23.30;99.90;;;;;;5057240;28;20032;-74
2023/08/16 09:24:58;;;;;;;8.68;4.78;;;23.20;99.90;;;;;;5052783;28;20376;-74
2023/08/16 09:27:25;;;;;;;7.10;4.35;;;23.20;99.90;;;;;;5050285;28;20099;-74
2023/08/16 09:29:54;;;;;;;7.60;3.78;;;23.30;99.90;;;;;;5055946;28;20387;-74
2023/08/16 09:32:21;;;;;;;6.78;4.00;;;23.40;99.90;;;;;;5056456;28;20096;-73
2023/08/16 09:34:48;;;;;;;9.68;4.40;;;23.70;99.90;;;;;;5055201;28;20111;-73
2023/08/16 09:37:15;;;;;;;7.72;3.28;;;23.80;99.90;;;;;;5054929;28;20057;-74
2023/08/16 09:39:40;;;;;;;7.13;3.95;;;23.80;99.90;;;;;;5049959;28;20037;-73
2023/08/16 09:42:10;;;;;;;10.55;4.32;;;23.80;99.80;;;;;;5023348;28;20467;-73
2023/08/16 09:44:37;;;;;;;5.85;3.08;;;24.00;99.80;;;;;;5043331;28;20029;-74
2023/08/16 09:47:15;;;;;;;6.57;3.90;;;24.20;99.50;;;;;;5048837;28;20028;-69
2023/08/16 09:49:43;;;;;;;6.55;4.03;;;24.40;99.70;;;;;;5049060;28;20032;-74
2023/08/16 09:52:11;;;;;;;6.72;3.28;;;24.60;99.10;;;;;;5048149;28;20025;-74
2023/08/16 09:54:37;;;;;;;9.43;3.33;;;24.60;99.20;;;;;;5050303;28;20107;-74
2023/08/16 09:57:04;;;;;;;3.55;3.22;;;24.50;99.10;;;;;;5055804;28;20029;-74
2023/08/16 09:59:30;;;;;;;5.32;3.45;;;24.50;99.30;;;;;;5044465;28;20094;-74
2023/08/16 10:01:57;;;;;;;8.48;5.43;;;24.40;99.00;;;;;;5032148;28;20169;-75
2023/08/16 10:04:24;;;;;;;4.00;3.45;;;24.30;98.90;;;;;;5054972;28;20028;-74
2023/08/16 10:06:49;;;;;;;10.25;5.00;;;24.30;99.50;;;;;;5057086;28;20127;-74
2023/08/16 10:09:15;;;;;;;9.27;3.80;;;24.40;99.30;;;;;;5037008;28;20104;-73
2023/08/16 10:11:43;;;;;;;8.80;3.60;;;24.50;99.10;;;;;;5053445;28;20025;-73
2023/08/16 10:14:09;;;;;;;10.68;3.60;;;24.40;99.40;;;;;;5056188;28;20025;-74
2023/08/16 10:16:38;;;;;;;4.13;3.55;;;24.50;99.40;;;;;;5051989;28;20021;-74
2023/08/16 10:19:06;;;;;;;8.02;3.22;;;24.50;99.10;;;;;;5053258;28;20068;-73
2023/08/16 10:21:35;;;;;;;8.93;4.80;;;24.30;99.30;;;;;;5052878;28;20029;-74
2023/08/16 10:24:01;;;;;;;7.95;4.60;;;24.30;99.50;;;;;;5053884;28;20029;-74
2023/08/16 10:26:30;;;;;;;7.40;4.30;;;24.50;99.00;;;;;;5043955;28;20028;-74
2023/08/16 10:29:00;;;;;;;8.85;4.80;;;24.50;99.00;;;;;;5049966;28;20434;-74
2023/08/16 10:31:31;;;;;;;9.52;4.55;;;24.50;99.00;;;;;;5050979;28;20115;-74
2023/08/16 10:33:58;;;;;;;9.13;4.82;;;24.70;99.00;;;;;;5052163;28;20021;-73
2023/08/16 10:36:24;;;;;;;8.30;5.22;;;24.90;98.90;;;;;;5049803;28;20025;-74
2023/08/16 10:38:55;;;;;;;10.65;8.43;;;24.90;98.60;;;;;;5056504;28;20029;-74
2023/08/16 10:41:21;;;;;;;11.65;8.27;;;24.80;98.30;;;;;;5051064;28;20040;-74
2023/08/16 10:43:49;;;;;;;8.95;5.72;;;24.70;98.70;;;;;;5050840;28;20404;-73
2023/08/16 10:46:27;;;;;;;6.50;4.28;;;24.80;98.70;;;;;;5046018;28;20024;-72
2023/08/16 10:49:00;;;;;;;4.85;4.43;;;24.90;98.60;;;;;;5044720;28;20025;-72
2023/08/16 10:51:26;;;;;;;11.70;4.78;;;25.00;98.40;;;;;;5048937;28;20369;-72
2023/08/16 10:53:55;;;;;;;6.68;4.45;;;25.00;98.40;;;;;;5052609;28;20078;-72
2023/08/16 10:56:20;;;;;;;6.65;4.35;;;24.90;98.40;;;;;;5055030;28;20028;-72
2023/08/16 10:58:50;;;;;;;6.35;5.60;;;24.70;98.60;;;;;;5051489;28;20017;-73
2023/08/16 11:01:17;;;;;;;6.88;5.30;;;24.70;98.60;;;;;;5052613;28;20028;-73
2023/08/16 11:03:49;;;;;;;13.75;9.57;;;24.90;99.00;;;;;;5049410;28;20035;-73
2023/08/16 11:06:16;;;;;;;16.63;14.40;;;25.30;98.50;;;;;;5048176;28;20456;-72
2023/08/16 11:08:43;;;;;;;10.35;7.07;;;25.50;98.60;;;;;;5048563;28;20025;-73
2023/08/16 11:11:10;;;;;;;11.18;4.97;;;25.50;97.80;;;;;;5054106;28;20395;-73
2023/08/16 11:13:36;;;;;;;4.63;4.20;;;25.50;98.20;;;;;;5051714;28;20021;-73
2023/08/16 11:16:02;;;;;;;9.48;5.35;;;25.40;97.70;;;;;;5052664;28;20023;-73
2023/08/16 11:18:29;;;;;;;9.95;5.00;;;25.10;98.10;;;;;;5055215;28;20025;-73
2023/08/16 11:20:54;;;;;;;6.43;4.57;;;24.80;98.40;;;;;;5043996;28;20025;-73
2023/08/16 11:23:21;;;;;;;8.80;4.90;;;24.70;98.50;;;;;;5047627;28;20540;-74
2023/08/16 11:25:47;;;;;;;5.25;4.63;;;24.60;98.80;;;;;;5049192;28;20040;-73
2023/08/16 11:28:18;;;;;;;7.47;4.80;;;24.60;98.80;;;;;;5044519;28;20040;-74
2023/08/16 11:30:44;;;;;;;13.10;6.43;;;24.90;98.90;;;;;;5049325;28;20035;-73
2023/08/16 11:33:15;;;;;;;6.28;5.28;;;25.20;98.40;;;;;;5042966;28;20103;-73
2023/08/16 11:35:41;;;;;;;6.95;4.18;;;25.30;98.10;;;;;;5046602;28;20060;-74
2023/08/16 11:38:07;;;;;;;11.60;4.43;;;25.40;98.40;;;;;;5054053;28;20755;-73
2023/08/16 11:40:32;;;;;;;18.33;10.98;;;25.60;98.30;;;;;;5052669;28;20078;-74
2023/08/16 11:43:04;;;;;;;12.35;9.68;;;25.70;98.00;;;;;;5050139;28;20029;-74
2023/08/16 11:45:30;;;;;;;22.08;15.00;;;25.70;97.80;;;;;;5045872;28;20041;-74
2023/08/16 11:47:55;;;;;;;11.10;5.30;;;25.70;97.80;;;;;;5045003;28;20029;-73
2023/08/16 11:50:24;;;;;;;16.20;7.35;;;25.60;98.00;;;;;;5049240;28;20115;-74
2023/08/16 11:53:01;;;;;;;10.50;6.10;;;25.70;98.00;;;;;;5050084;28;20031;-74
2023/08/16 11:55:29;;;;;;;6.63;5.10;;;25.70;98.00;;;;;;5053329;28;20082;-74
2023/08/16 11:58:01;;;;;;;12.50;8.43;;;25.90;97.50;;;;;;5051887;28;20025;-74
2023/08/16 12:00:29;;;;;;;13.95;7.78;;;25.90;97.70;;;;;;5048825;28;20021;-74
2023/08/16 12:02:55;;;;;;;5.97;4.63;;;25.80;97.50;;;;;;5046895;28;20025;-75
2023/08/16 12:05:21;;;;;;;10.85;7.53;;;25.70;97.50;;;;;;5049193;28;20627;-73
2023/08/16 12:07:53;;;;;;;9.05;6.95;;;25.50;97.60;;;;;;5051631;28;20017;-73
2023/08/16 12:10:29;;;;;;;9.70;5.93;;;25.50;98.00;;;;;;5047630;28;20632;-74
2023/08/16 12:12:55;;;;;;;7.93;5.03;;;25.60;98.20;;;;;;5047284;28;20029;-73
2023/08/16 12:15:25;;;;;;;9.18;5.25;;;25.60;98.50;;;;;;5050916;28;20540;-73
2023/08/16 12:17:52;;;;;;;10.25;6.65;;;25.60;97.90;;;;;;5050376;28;20376;-73
2023/08/16 12:20:17;;;;;;;9.05;6.85;;;25.40;98.30;;;;;;5056113;28;20032;-74
2023/08/16 12:22:46;;;;;;;7.40;5.93;;;25.30;98.40;;;;;;5045813;28;20040;-73
2023/08/16 12:25:12;;;;;;;13.32;5.20;;;25.20;98.60;;;;;;5038112;28;20559;-73
2023/08/16 12:27:38;;;;;;;6.47;5.65;;;25.10;98.40;;;;;;5046907;28;20115;-73
2023/08/16 12:30:06;;;;;;;6.82;4.80;;;25.00;98.50;;;;;;5042322;28;20037;-74
2023/08/16 12:32:31;;;;;;;7.28;5.45;;;24.90;98.50;;;;;;5026469;28;20087;-73
2023/08/16 12:34:57;;;;;;;8.55;5.53;;;25.00;98.50;;;;;;5038867;28;20025;-73
2023/08/16 12:37:23;;;;;;;9.07;5.32;;;25.20;98.40;;;;;;5048039;28;20430;-73
2023/08/16 12:39:48;;;;;;;5.78;5.05;;;25.40;98.30;;;;;;5045237;28;20025;-73